createdAt,value
2023-05-21T00:01:08.041Z,5.97
2023-05-21T00:05:18.801Z,6.73
2023-05-21T00:09:28.028Z,6.63
2023-05-21T00:13:38.968Z,6.97
2023-05-21T00:17:48.210Z,6.70
2023-05-21T00:21:57.934Z,6.40
2023-05-21T00:26:07.201Z,5.80
2023-05-21T00:30:18.134Z,6.37
2023-05-21T00:34:27.643Z,6.50
2023-05-21T00:38:38.504Z,5.70
2023-05-21T00:42:48.357Z,5.30
2023-05-21T00:47:02.502Z,4.80
2023-05-21T00:51:11.779Z,4.77
2023-05-21T00:55:20.992Z,5.07
2023-05-21T00:59:30.364Z,5.33
2023-05-21T01:03:41.987Z,4.70
2023-05-21T01:07:51.283Z,4.87
2023-05-21T01:12:01.727Z,5.03
2023-05-21T01:16:13.726Z,4.50
2023-05-21T01:20:26.734Z,4.97
2023-05-21T01:24:37.855Z,5.07
2023-05-21T01:28:47.448Z,4.90
2023-05-21T01:33:02.637Z,4.70
2023-05-21T01:37:18.940Z,4.70
2023-05-21T01:41:31.427Z,4.47
2023-05-21T01:45:44.092Z,5.33
2023-05-21T01:49:54.030Z,4.13
2023-05-21T01:54:03.774Z,4.03
2023-05-21T01:58:16.129Z,4.33
2023-05-21T02:02:25.501Z,4.00
2023-05-21T02:06:36.208Z,4.27
2023-05-21T02:10:45.427Z,4.70
2023-05-21T02:14:56.692Z,4.70
2023-05-21T02:19:07.036Z,5.27
2023-05-21T02:23:16.400Z,5.10
2023-05-21T02:27:25.553Z,4.90
2023-05-21T02:31:36.316Z,4.53
2023-05-21T02:35:45.529Z,4.50
2023-05-21T02:39:54.695Z,4.73
2023-05-21T02:44:03.817Z,4.67
2023-05-21T02:48:14.542Z,5.17
2023-05-21T02:52:24.221Z,5.00
2023-05-21T02:56:33.419Z,5.07
2023-05-21T03:00:42.749Z,4.70
2023-05-21T03:04:53.357Z,5.63
2023-05-21T03:09:02.636Z,5.10
2023-05-21T03:13:11.941Z,5.03
2023-05-21T03:17:21.168Z,4.90
2023-05-21T03:21:32.594Z,4.47
2023-05-21T03:25:42.373Z,4.77
2023-05-21T03:29:52.242Z,4.47
2023-05-21T03:34:01.412Z,5.10
2023-05-21T03:38:11.987Z,4.93
2023-05-21T03:42:21.201Z,5.47
2023-05-21T03:46:30.352Z,5.80
2023-05-21T03:50:39.516Z,5.40
2023-05-21T03:54:50.194Z,5.93
2023-05-21T03:58:59.365Z,6.07
2023-05-21T04:03:08.744Z,5.97
2023-05-21T04:07:19.541Z,6.13
2023-05-21T04:11:30.308Z,6.73
2023-05-21T04:15:39.609Z,6.93
2023-05-21T04:19:48.861Z,7.27
2023-05-21T04:23:58.959Z,7.30
2023-05-21T04:28:09.638Z,7.20
2023-05-21T04:32:19.389Z,6.37
2023-05-21T04:36:29.330Z,5.97
2023-05-21T04:40:38.393Z,6.90
2023-05-21T04:44:49.104Z,5.60
2023-05-21T04:49:03.296Z,5.77
2023-05-21T04:53:12.612Z,5.17
2023-05-21T04:57:22.164Z,4.90
2023-05-21T05:01:32.890Z,4.20
2023-05-21T05:05:42.170Z,4.40
2023-05-21T05:09:51.281Z,3.83
2023-05-21T05:14:00.413Z,3.97
2023-05-21T05:18:12.170Z,4.30
2023-05-21T05:22:21.263Z,3.90
2023-05-21T05:26:30.351Z,3.93
2023-05-21T05:30:39.484Z,3.47
2023-05-21T05:34:50.272Z,3.10
2023-05-21T05:38:59.522Z,3.97
2023-05-21T05:43:08.873Z,3.40
2023-05-21T05:47:18.857Z,3.13
2023-05-21T05:51:30.501Z,3.70
2023-05-21T05:55:39.676Z,3.07
2023-05-21T05:59:48.898Z,3.17
2023-05-21T06:03:58.881Z,3.27
2023-05-21T06:08:09.685Z,3.23
2023-05-21T06:12:18.920Z,3.17
2023-05-21T06:16:27.956Z,3.20
2023-05-21T06:20:36.921Z,3.73
2023-05-21T06:24:47.581Z,3.20
2023-05-21T06:28:57.066Z,3.33
2023-05-21T06:33:06.625Z,2.60
2023-05-21T06:37:16.021Z,3.17
2023-05-21T06:41:26.837Z,2.80
2023-05-21T06:45:36.612Z,2.97
2023-05-21T06:49:46.075Z,2.60
2023-05-21T06:53:55.174Z,3.10
2023-05-21T06:58:06.048Z,2.53
2023-05-21T07:02:15.222Z,2.53
2023-05-21T07:06:24.371Z,2.30
2023-05-21T07:10:33.602Z,2.20
2023-05-21T07:14:44.240Z,2.13
2023-05-21T07:18:53.451Z,2.20
2023-05-21T07:23:02.696Z,2.23
2023-05-21T07:27:24.637Z,2.50
2023-05-21T07:31:36.627Z,2.17
2023-05-21T07:35:45.854Z,2.60
2023-05-21T07:39:54.941Z,2.23
2023-05-21T07:44:04.305Z,2.07
2023-05-21T07:48:14.895Z,2.27
2023-05-21T07:52:24.071Z,2.17
2023-05-21T07:56:33.217Z,2.37
2023-05-21T08:00:45.626Z,2.20
2023-05-21T08:04:56.779Z,2.50
2023-05-21T08:09:06.637Z,2.63
2023-05-21T08:13:16.413Z,2.47
2023-05-21T08:17:25.736Z,2.37
2023-05-21T08:21:37.151Z,2.73
2023-05-21T08:25:46.274Z,2.80
2023-05-21T08:29:55.545Z,2.63
2023-05-21T08:34:04.704Z,2.50
2023-05-21T08:38:17.224Z,2.30
2023-05-21T08:42:36.976Z,2.40
2023-05-21T08:46:51.529Z,2.10
2023-05-21T08:51:03.780Z,1.90
2023-05-21T08:55:14.937Z,2.30
2023-05-21T08:59:24.721Z,2.03
2023-05-21T09:03:34.101Z,2.03
2023-05-21T09:07:51.679Z,2.17
2023-05-21T09:12:03.633Z,2.13
2023-05-21T09:16:12.944Z,1.87
2023-05-21T09:20:27.330Z,1.90
2023-05-21T09:24:36.684Z,1.70
2023-05-21T09:28:48.235Z,1.70
2023-05-21T09:33:00.154Z,1.70
2023-05-21T09:37:23.649Z,2.00
2023-05-21T09:41:37.156Z,1.80
2023-05-21T09:46:06.826Z,1.90
2023-05-21T09:50:20.932Z,1.90
2023-05-21T09:54:34.783Z,2.23
2023-05-21T09:58:44.365Z,1.90
2023-05-21T10:02:59.065Z,1.80
2023-05-21T10:07:08.684Z,1.90
2023-05-21T10:11:19.223Z,1.90
2023-05-21T10:15:32.089Z,1.40
2023-05-21T10:19:43.881Z,1.73
2023-05-21T10:23:53.736Z,2.17
2023-05-21T10:28:03.372Z,1.80
2023-05-21T10:32:15.428Z,1.60
2023-05-21T10:36:27.137Z,1.93
2023-05-21T10:40:37.823Z,2.40
2023-05-21T10:45:03.153Z,2.03
2023-05-21T10:49:35.895Z,2.40
2023-05-21T10:54:10.989Z,2.33
2023-05-21T10:58:44.612Z,2.10
2023-05-21T11:02:54.716Z,2.20
2023-05-21T11:07:04.491Z,2.50
2023-05-21T11:11:15.583Z,2.40
2023-05-21T11:15:24.932Z,2.43
2023-05-21T11:19:39.471Z,2.50
2023-05-21T11:23:54.549Z,2.40
2023-05-21T11:28:09.951Z,2.53
2023-05-21T11:32:20.910Z,3.00
2023-05-21T11:36:30.324Z,2.53
2023-05-21T11:40:40.097Z,2.60
2023-05-21T11:44:51.584Z,3.23
2023-05-21T11:49:02.668Z,2.97
2023-05-21T11:53:13.745Z,3.70
2023-05-21T11:57:23.637Z,2.93
2023-05-21T12:01:35.499Z,3.10
2023-05-21T12:05:49.241Z,3.53
2023-05-21T12:09:59.685Z,2.80
2023-05-21T12:14:10.900Z,3.20
2023-05-21T12:18:22.682Z,3.10
2023-05-21T12:22:32.171Z,3.00
2023-05-21T12:26:42.352Z,2.73
2023-05-21T12:30:51.921Z,2.97
2023-05-21T12:35:03.180Z,2.50
2023-05-21T12:39:12.577Z,3.30
2023-05-21T12:43:22.189Z,2.97
2023-05-21T12:47:33.837Z,3.20
2023-05-21T12:51:48.511Z,3.40
2023-05-21T12:55:58.221Z,2.73
2023-05-21T13:00:10.894Z,2.53
2023-05-21T13:04:22.388Z,3.43
2023-05-21T13:08:34.877Z,3.17
2023-05-21T13:12:44.663Z,2.53
2023-05-21T13:16:54.270Z,3.00
2023-05-21T13:21:03.531Z,3.17
2023-05-21T13:25:16.401Z,3.03
2023-05-21T13:29:26.765Z,2.80
2023-05-21T13:33:36.380Z,2.80
2023-05-21T13:37:46.750Z,2.97
2023-05-21T13:41:57.720Z,3.00
2023-05-21T13:46:07.304Z,2.70
2023-05-21T13:50:17.071Z,3.07
2023-05-21T13:54:26.448Z,2.90
2023-05-21T13:58:37.223Z,2.50
2023-05-21T14:02:46.666Z,3.53
2023-05-21T14:06:56.061Z,3.80
2023-05-21T14:11:05.301Z,3.43
2023-05-21T14:15:16.659Z,3.30
2023-05-21T14:19:26.997Z,3.30
2023-05-21T14:23:36.284Z,2.90
2023-05-21T14:27:45.578Z,3.37
2023-05-21T14:31:56.555Z,3.10
2023-05-21T14:36:06.319Z,3.23
2023-05-21T14:40:16.456Z,2.73
2023-05-21T14:44:25.723Z,3.50
2023-05-21T14:48:36.643Z,3.30
2023-05-21T14:52:45.840Z,3.27
2023-05-21T14:56:55.072Z,3.50
2023-05-21T15:01:05.161Z,3.97
2023-05-21T15:05:16.059Z,3.60
2023-05-21T15:09:25.535Z,4.00
2023-05-21T15:13:34.873Z,3.57
2023-05-21T15:17:44.228Z,3.70
2023-05-21T15:21:55.048Z,3.20
2023-05-21T15:26:04.254Z,3.50
2023-05-21T15:30:14.299Z,4.67
2023-05-21T15:34:23.564Z,4.00
2023-05-21T15:38:34.480Z,4.20
2023-05-21T15:42:43.731Z,4.63
2023-05-21T15:46:54.221Z,4.17
2023-05-21T15:51:03.447Z,3.80
2023-05-21T15:55:14.457Z,4.23
2023-05-21T15:59:26.465Z,4.47
2023-05-21T16:03:35.679Z,4.43
2023-05-21T16:07:45.008Z,4.53
2023-05-21T16:11:56.180Z,4.23
2023-05-21T16:16:06.118Z,4.50
2023-05-21T16:20:16.503Z,4.93
2023-05-21T16:24:25.704Z,4.97
2023-05-21T16:28:37.534Z,5.40
2023-05-21T16:32:47.074Z,5.10
2023-05-21T16:36:56.341Z,5.17
2023-05-21T16:41:05.675Z,4.77
2023-05-21T16:45:20.985Z,5.10
2023-05-21T16:49:30.169Z,5.37
2023-05-21T16:53:39.374Z,5.63
2023-05-21T16:57:48.625Z,6.03
2023-05-21T17:01:59.431Z,5.77
2023-05-21T17:06:09.182Z,5.53
2023-05-21T17:10:18.366Z,5.67
2023-05-21T17:14:34.135Z,5.43
2023-05-21T17:18:45.765Z,6.40
2023-05-21T17:22:54.940Z,5.80
2023-05-21T17:27:04.457Z,6.17
2023-05-21T17:31:13.915Z,6.40
2023-05-21T17:35:24.803Z,6.10
2023-05-21T17:39:34.003Z,5.67
2023-05-21T17:43:43.312Z,6.00
2023-05-21T17:47:52.444Z,6.00
2023-05-21T17:52:04.831Z,5.47
2023-05-21T17:56:14.022Z,6.53
2023-05-21T18:00:23.457Z,6.90
2023-05-21T18:04:32.683Z,6.90
2023-05-21T18:08:43.471Z,6.40
2023-05-21T18:12:52.829Z,6.57
2023-05-21T18:17:02.175Z,7.87
2023-05-21T18:21:11.871Z,7.23
2023-05-21T18:25:23.047Z,7.00
2023-05-21T18:29:32.808Z,7.37
2023-05-21T18:33:42.193Z,7.53
2023-05-21T18:37:51.554Z,8.33
2023-05-21T18:42:12.766Z,7.97
2023-05-21T18:46:23.066Z,7.30
2023-05-21T18:50:34.911Z,7.40
2023-05-21T18:54:44.512Z,7.73
2023-05-21T18:58:56.333Z,7.10
2023-05-21T19:03:08.703Z,6.50
2023-05-21T19:07:18.313Z,5.60
2023-05-21T19:11:31.402Z,5.33
2023-05-21T19:15:47.449Z,6.00
2023-05-21T19:19:58.195Z,5.60
2023-05-21T19:24:11.107Z,6.37
2023-05-21T19:28:20.849Z,7.00
2023-05-21T19:32:31.902Z,6.83
2023-05-21T19:36:52.434Z,6.20
2023-05-21T19:41:02.822Z,6.73
2023-05-21T19:45:13.719Z,6.93
2023-05-21T19:49:24.592Z,6.30
2023-05-21T19:53:34.299Z,5.97
2023-05-21T19:57:44.167Z,6.63
2023-05-21T20:01:53.621Z,5.83
2023-05-21T20:06:04.731Z,5.90
2023-05-21T20:10:14.089Z,5.60
2023-05-21T20:14:23.429Z,5.13
2023-05-21T20:18:32.787Z,5.60
2023-05-21T20:22:43.742Z,5.67
2023-05-21T20:26:55.383Z,5.00
2023-05-21T20:31:05.095Z,5.93
2023-05-21T20:35:14.994Z,6.10
2023-05-21T20:39:27.685Z,5.37
2023-05-21T20:43:37.740Z,5.80
2023-05-21T20:48:07.259Z,5.57
2023-05-21T20:52:16.922Z,6.03
2023-05-21T20:56:41.469Z,5.03
2023-05-21T21:00:51.931Z,5.33
2023-05-21T21:05:02.891Z,5.37
2023-05-21T21:09:12.185Z,4.73
2023-05-21T21:13:23.045Z,5.47
2023-05-21T21:17:32.545Z,5.13
2023-05-21T21:21:41.968Z,5.30
2023-05-21T21:25:51.397Z,5.00
2023-05-21T21:30:02.248Z,5.93
2023-05-21T21:34:11.791Z,5.20
2023-05-21T21:38:21.057Z,5.47
2023-05-21T21:42:30.392Z,5.07
2023-05-21T21:46:41.232Z,5.20
2023-05-21T21:50:50.530Z,4.70
2023-05-21T21:55:00.162Z,5.20
2023-05-21T21:59:09.718Z,5.00
2023-05-21T22:03:20.969Z,4.70
2023-05-21T22:07:32.736Z,5.10
2023-05-21T22:11:42.370Z,5.00
2023-05-21T22:15:52.045Z,5.27
2023-05-21T22:20:03.074Z,4.47
2023-05-21T22:24:24.104Z,4.93
2023-05-21T22:28:40.126Z,4.77
2023-05-21T22:32:49.858Z,5.30
2023-05-21T22:37:00.822Z,5.33
2023-05-21T22:41:10.398Z,5.43
2023-05-21T22:45:21.090Z,5.23
2023-05-21T22:49:30.938Z,5.57
2023-05-21T22:53:41.814Z,5.67
2023-05-21T22:57:51.215Z,5.53
2023-05-21T23:02:00.852Z,5.37
2023-05-21T23:06:10.698Z,5.10
2023-05-21T23:10:21.671Z,5.03
2023-05-21T23:14:31.009Z,5.73
2023-05-21T23:18:41.340Z,5.60
2023-05-21T23:22:50.728Z,5.83
2023-05-21T23:27:03.479Z,5.27
2023-05-21T23:31:13.419Z,5.50
2023-05-21T23:35:23.216Z,5.97
2023-05-21T23:39:32.697Z,5.57
2023-05-21T23:43:43.654Z,5.80
2023-05-21T23:47:53.813Z,5.40
2023-05-21T23:52:03.340Z,5.73
2023-05-21T23:56:13.193Z,5.77
